aviador You're here:

ZBAA Decoded Metar

BEIJING in CHINA
Report Time2017-09-21 21:00:00
UTC Time2017-09-21 21:12:03
Flight Rules vfr VFR
Wind290° at 6 kt
W.Decomp.*RWY 36: 2.6 kt HW 5.4 kt LCW
RWY 01: 1.7 kt HW 5.8 kt LCW
W.Rank290° ranks 28
Current wind is below 290° avg. (10.7)
Visibility9999 m
Phenomena:N/A
Clouds:N/A
Expected CloudBase > 2,800 ft AGL from Temp-Dew spread
CeilingNone
Temp20°C (ISA +5)
Dew Point13°C (64% RH)
AAT18.8°C
QNH1007 hPa
Density Alt1,109 ft
Elevation98 ft
Report Wrong Elevation
Raw Report
ZBAA 212100Z 29003MPS CAVOK 20/13 Q1007 NOSIG=

Extra information for ZBAA:More info

Metar Taf Metar & Taf Last 4 Metars F.Rules Stats Wind Profile Meteogram Temp Stats Airport Information Weather charts Add Link Nearby VenuesMetar ALERT Operation Metar Decoded Social comments